createdAt,value
2018-12-21T00:00:18.823Z,0
2018-12-21T00:00:50.799Z,0
2018-12-21T00:01:22.799Z,0
2018-12-21T00:01:54.786Z,0
2018-12-21T00:02:26.749Z,0
2018-12-21T00:02:58.726Z,0
2018-12-21T00:03:30.706Z,0
2018-12-21T00:04:02.682Z,0
2018-12-21T00:04:34.689Z,0
2018-12-21T00:05:06.662Z,0
2018-12-21T00:05:38.641Z,0
2018-12-21T00:06:10.635Z,0
2018-12-21T00:06:42.638Z,0
2018-12-21T00:07:14.602Z,0
2018-12-21T00:07:46.602Z,0
2018-12-21T00:08:18.577Z,0
2018-12-21T00:08:50.551Z,0
2018-12-21T00:09:22.535Z,0
2018-12-21T00:09:54.492Z,0
2018-12-21T00:10:26.533Z,0
2018-12-21T00:10:58.518Z,0
2018-12-21T00:11:30.494Z,0
2018-12-21T00:12:02.485Z,0
2018-12-21T00:12:34.446Z,0
2018-12-21T00:13:06.462Z,0
2018-12-21T00:13:38.445Z,0
2018-12-21T00:14:10.425Z,0
2018-12-21T00:14:42.398Z,0
2018-12-21T00:15:14.379Z,0
2018-12-21T00:15:46.365Z,0
2018-12-21T00:16:18.341Z,0
2018-12-21T00:16:50.307Z,0
2018-12-21T00:17:22.278Z,0
2018-12-21T00:17:54.254Z,0
2018-12-21T00:18:26.211Z,0
2018-12-21T00:18:58.255Z,0
2018-12-21T00:19:30.220Z,0
2018-12-21T00:20:02.329Z,0
2018-12-21T00:20:34.338Z,0
2018-12-21T00:21:06.329Z,0
2018-12-21T00:21:38.302Z,0
2018-12-21T00:22:10.285Z,0
2018-12-21T00:22:42.242Z,0
2018-12-21T00:23:14.248Z,0
2018-12-21T00:23:46.331Z,0
2018-12-21T00:24:18.314Z,0
2018-12-21T00:24:50.290Z,0
2018-12-21T00:25:22.274Z,0
2018-12-21T00:25:54.265Z,0
2018-12-21T00:26:26.219Z,0
2018-12-21T00:26:58.203Z,0
2018-12-21T00:27:30.199Z,0
2018-12-21T00:28:02.159Z,0
2018-12-21T00:28:34.141Z,0
2018-12-21T00:29:06.105Z,0
2018-12-21T00:29:38.065Z,0
2018-12-21T00:30:10.039Z,0
2018-12-21T00:30:42.001Z,0
2018-12-21T00:31:13.996Z,0
2018-12-21T00:31:45.996Z,0
2018-12-21T00:32:17.965Z,0
2018-12-21T00:32:49.947Z,0
2018-12-21T00:33:21.941Z,0
2018-12-21T00:33:53.931Z,0
2018-12-21T00:34:25.923Z,0
2018-12-21T00:34:57.904Z,0
2018-12-21T00:35:29.885Z,0
2018-12-21T00:36:01.860Z,0
2018-12-21T00:36:33.830Z,0
2018-12-21T00:37:05.852Z,0
2018-12-21T00:37:37.840Z,0
2018-12-21T00:38:09.820Z,0
2018-12-21T00:38:41.906Z,0
2018-12-21T00:39:13.886Z,0
2018-12-21T00:39:45.844Z,0
2018-12-21T00:40:17.826Z,0
2018-12-21T00:40:49.798Z,0
2018-12-21T00:41:21.776Z,0
2018-12-21T00:41:53.761Z,0
2018-12-21T00:42:25.769Z,0
2018-12-21T00:42:57.749Z,0
2018-12-21T00:43:29.715Z,0
2018-12-21T00:44:01.680Z,0
2018-12-21T00:44:33.659Z,0
2018-12-21T00:45:05.630Z,0
2018-12-21T00:45:37.617Z,0
2018-12-21T00:46:09.604Z,0
2018-12-21T00:46:41.615Z,0
2018-12-21T00:47:13.577Z,0
2018-12-21T00:47:45.545Z,0
2018-12-21T00:48:17.521Z,0
2018-12-21T00:48:49.601Z,0
2018-12-21T00:49:21.570Z,0
2018-12-21T00:49:53.530Z,0
2018-12-21T00:50:25.498Z,0
2018-12-21T00:50:57.475Z,0
2018-12-21T00:51:31.650Z,0
2018-12-21T00:52:03.631Z,0
2018-12-21T00:52:35.588Z,0
2018-12-21T00:53:07.577Z,0
2018-12-21T00:53:39.640Z,0
2018-12-21T00:54:11.605Z,0
2018-12-21T00:54:43.598Z,0
2018-12-21T00:55:15.574Z,0
2018-12-21T00:55:47.546Z,0
2018-12-21T00:56:19.522Z,0
2018-12-21T00:56:51.499Z,0
2018-12-21T00:57:23.473Z,0
2018-12-21T00:57:55.429Z,0
2018-12-21T00:58:27.403Z,0
2018-12-21T00:58:59.379Z,0
2018-12-21T00:59:31.340Z,0
2018-12-21T01:00:03.334Z,0
2018-12-21T01:00:35.304Z,0
2018-12-21T01:01:07.272Z,0
2018-12-21T01:01:39.227Z,0
2018-12-21T01:02:11.206Z,0
2018-12-21T01:02:43.174Z,0
2018-12-21T01:03:15.168Z,0
2018-12-21T01:03:47.148Z,0
2018-12-21T01:04:19.128Z,0
2018-12-21T01:04:51.095Z,0
2018-12-21T01:05:23.087Z,0
2018-12-21T01:05:55.070Z,0
2018-12-21T01:06:27.046Z,0
2018-12-21T01:06:59.017Z,0
2018-12-21T01:07:30.987Z,0
2018-12-21T01:08:02.973Z,0
2018-12-21T01:08:34.940Z,0
2018-12-21T01:09:06.954Z,0
2018-12-21T01:09:38.948Z,0
2018-12-21T01:10:10.937Z,0
2018-12-21T01:10:42.915Z,0
2018-12-21T01:11:14.964Z,0
2018-12-21T01:11:46.948Z,0
2018-12-21T01:12:18.912Z,0
2018-12-21T01:12:50.870Z,0
2018-12-21T01:13:22.863Z,0
2018-12-21T01:13:54.851Z,0
2018-12-21T01:14:26.807Z,0
2018-12-21T01:14:58.771Z,0
2018-12-21T01:15:30.737Z,0
2018-12-21T01:16:02.701Z,0
2018-12-21T01:16:34.681Z,0
2018-12-21T01:17:06.655Z,0
2018-12-21T01:17:38.619Z,0
2018-12-21T01:18:10.591Z,0
2018-12-21T01:18:42.556Z,0
2018-12-21T01:19:14.546Z,0
2018-12-21T01:19:46.521Z,0
2018-12-21T01:20:18.494Z,0
2018-12-21T01:20:50.468Z,0
2018-12-21T01:21:22.447Z,0
2018-12-21T01:21:54.405Z,0
2018-12-21T01:22:26.371Z,0
2018-12-21T01:22:58.375Z,0
2018-12-21T01:23:30.360Z,0
2018-12-21T01:24:02.347Z,0
2018-12-21T01:24:34.321Z,0
2018-12-21T01:25:06.327Z,0
2018-12-21T01:25:38.296Z,0
2018-12-21T01:26:10.277Z,0
2018-12-21T01:26:42.254Z,0
2018-12-21T01:27:14.220Z,0
2018-12-21T01:27:46.172Z,0
2018-12-21T01:28:18.148Z,0
2018-12-21T01:28:50.112Z,0
2018-12-21T01:29:22.144Z,0
2018-12-21T01:29:54.110Z,0
2018-12-21T01:30:26.113Z,0
2018-12-21T01:30:58.092Z,0
2018-12-21T01:31:30.079Z,0
2018-12-21T01:32:02.160Z,0
2018-12-21T01:32:34.156Z,0
2018-12-21T01:33:06.122Z,0
2018-12-21T01:33:38.114Z,0
2018-12-21T01:34:10.077Z,0
2018-12-21T01:34:42.022Z,0
2018-12-21T01:35:14.115Z,0
2018-12-21T01:35:46.084Z,0
2018-12-21T01:36:18.055Z,0
2018-12-21T01:36:50.114Z,0
2018-12-21T01:37:22.082Z,0
2018-12-21T01:37:54.057Z,0
2018-12-21T01:38:26.017Z,0
2018-12-21T01:38:57.984Z,0
2018-12-21T01:39:29.956Z,0
2018-12-21T01:40:01.924Z,0
2018-12-21T01:40:33.898Z,0
2018-12-21T01:41:05.885Z,0
2018-12-21T01:41:37.860Z,0
2018-12-21T01:42:09.966Z,0
2018-12-21T01:42:41.935Z,0
2018-12-21T01:43:13.898Z,0
2018-12-21T01:43:45.985Z,0
2018-12-21T01:44:17.966Z,0
2018-12-21T01:44:49.950Z,0
2018-12-21T01:45:21.924Z,0
2018-12-21T01:45:53.955Z,0
2018-12-21T01:46:25.935Z,0
2018-12-21T01:46:57.911Z,0
2018-12-21T01:47:29.866Z,0
2018-12-21T01:48:01.843Z,0
2018-12-21T01:48:33.819Z,0
2018-12-21T01:49:05.790Z,0
2018-12-21T01:49:37.756Z,0
2018-12-21T01:50:09.753Z,0
2018-12-21T01:50:41.738Z,0
2018-12-21T01:51:13.714Z,0
2018-12-21T01:51:48.477Z,0
2018-12-21T01:52:20.435Z,0
2018-12-21T01:52:52.370Z,0
2018-12-21T01:53:24.334Z,0
2018-12-21T01:53:56.313Z,0
2018-12-21T01:54:28.275Z,0
2018-12-21T01:55:00.266Z,0
2018-12-21T01:55:32.236Z,0
2018-12-21T01:56:04.223Z,0
2018-12-21T01:56:36.184Z,0
2018-12-21T01:57:08.182Z,0
2018-12-21T01:57:40.138Z,0
2018-12-21T01:58:12.134Z,0
2018-12-21T01:58:44.196Z,0
2018-12-21T01:59:16.177Z,0
2018-12-21T01:59:48.126Z,0
2018-12-21T02:00:20.105Z,0
2018-12-21T02:00:52.079Z,0
2018-12-21T02:01:24.051Z,0
2018-12-21T02:01:56.017Z,0
2018-12-21T02:02:27.991Z,0
2018-12-21T02:02:59.966Z,0
2018-12-21T02:03:31.926Z,0
2018-12-21T02:04:03.900Z,0
2018-12-21T02:04:35.852Z,0
2018-12-21T02:05:07.814Z,0
2018-12-21T02:05:39.796Z,0
2018-12-21T02:06:11.772Z,0
2018-12-21T02:06:43.746Z,0
2018-12-21T02:07:15.721Z,0
2018-12-21T02:07:47.688Z,0
2018-12-21T02:08:19.665Z,0
2018-12-21T02:08:51.625Z,0
2018-12-21T02:09:23.607Z,0
2018-12-21T02:09:55.587Z,0
2018-12-21T02:10:27.575Z,0
2018-12-21T02:10:59.548Z,0
2018-12-21T02:11:31.519Z,0
2018-12-21T02:12:03.484Z,0
2018-12-21T02:12:35.452Z,0
2018-12-21T02:13:07.431Z,0
2018-12-21T02:13:39.403Z,0
2018-12-21T02:14:11.357Z,0
2018-12-21T02:14:43.336Z,0
2018-12-21T02:15:15.397Z,0
2018-12-21T02:15:47.379Z,0
2018-12-21T02:16:19.407Z,0
2018-12-21T02:16:51.444Z,0
2018-12-21T02:17:23.420Z,0
2018-12-21T02:17:55.388Z,0
2018-12-21T02:18:27.360Z,0
2018-12-21T02:18:59.324Z,0
2018-12-21T02:19:31.290Z,0
2018-12-21T02:20:03.275Z,0
2018-12-21T02:20:35.241Z,0
2018-12-21T02:21:07.216Z,0
2018-12-21T02:21:39.289Z,0
2018-12-21T02:22:11.258Z,0
2018-12-21T02:22:43.232Z,0
2018-12-21T02:23:15.335Z,0
2018-12-21T02:23:47.306Z,0
2018-12-21T02:24:19.281Z,0
2018-12-21T02:24:51.252Z,0
2018-12-21T02:25:23.226Z,0
2018-12-21T02:25:55.201Z,0
2018-12-21T02:26:27.171Z,0
2018-12-21T02:26:59.146Z,0
2018-12-21T02:27:31.127Z,0
2018-12-21T02:28:03.101Z,0
2018-12-21T02:28:35.075Z,0
2018-12-21T02:29:07.048Z,0
2018-12-21T02:29:39.027Z,0
2018-12-21T02:30:11.014Z,0
2018-12-21T02:30:42.986Z,0
2018-12-21T02:31:14.979Z,0
2018-12-21T02:31:46.949Z,0
2018-12-21T02:32:18.951Z,0
2018-12-21T02:32:50.938Z,0
2018-12-21T02:33:22.914Z,0
2018-12-21T02:33:54.900Z,0
2018-12-21T02:34:26.992Z,0
2018-12-21T02:34:58.956Z,0
2018-12-21T02:35:30.937Z,0
2018-12-21T02:36:02.923Z,0
2018-12-21T02:36:34.879Z,0
2018-12-21T02:37:06.854Z,0
2018-12-21T02:37:38.826Z,0
2018-12-21T02:38:10.795Z,0
2018-12-21T02:38:42.791Z,0
2018-12-21T02:39:14.771Z,0
2018-12-21T02:39:46.757Z,0
2018-12-21T02:40:18.888Z,0
2018-12-21T02:40:50.877Z,0
2018-12-21T02:41:22.860Z,0
2018-12-21T02:41:54.851Z,0
2018-12-21T02:42:26.822Z,0
2018-12-21T02:42:58.793Z,0
2018-12-21T02:43:30.771Z,0
2018-12-21T02:44:02.783Z,0
2018-12-21T02:44:34.760Z,0
2018-12-21T02:45:06.726Z,0
2018-12-21T02:45:38.750Z,0
2018-12-21T02:46:10.719Z,0
2018-12-21T02:46:42.706Z,0
2018-12-21T02:47:14.715Z,0
2018-12-21T02:47:46.703Z,0
2018-12-21T02:48:18.681Z,0
2018-12-21T02:48:50.663Z,0
2018-12-21T02:49:22.631Z,0
2018-12-21T02:49:54.727Z,0
2018-12-21T02:50:26.689Z,0
2018-12-21T02:50:58.656Z,0
2018-12-21T02:51:30.643Z,0
2018-12-21T02:52:07.073Z,0
2018-12-21T02:52:39.055Z,0
2018-12-21T02:53:11.029Z,0
2018-12-21T02:53:43.015Z,0
2018-12-21T02:54:14.991Z,0
2018-12-21T02:54:46.968Z,0
2018-12-21T02:55:18.942Z,0
2018-12-21T02:55:50.928Z,0
2018-12-21T02:56:22.897Z,0
2018-12-21T02:56:54.874Z,0
2018-12-21T02:57:26.843Z,0
2018-12-21T02:57:58.828Z,0
2018-12-21T02:58:30.794Z,0
2018-12-21T02:59:02.763Z,0
2018-12-21T02:59:34.761Z,0
2018-12-21T03:00:06.748Z,0
2018-12-21T03:00:38.826Z,0
2018-12-21T03:01:10.803Z,0
2018-12-21T03:01:42.801Z,0
2018-12-21T03:02:14.798Z,0
2018-12-21T03:02:46.883Z,0
2018-12-21T03:03:18.869Z,0
2018-12-21T03:03:50.941Z,0
2018-12-21T03:04:22.912Z,0
2018-12-21T03:04:54.887Z,0
2018-12-21T03:05:26.900Z,0
2018-12-21T03:05:58.873Z,0
2018-12-21T03:06:30.856Z,0
2018-12-21T03:07:02.825Z,0
2018-12-21T03:07:34.805Z,0
2018-12-21T03:08:06.799Z,0
2018-12-21T03:08:38.766Z,0
2018-12-21T03:09:10.899Z,0
2018-12-21T03:09:42.887Z,0
2018-12-21T03:10:14.877Z,0
2018-12-21T03:10:46.846Z,0
2018-12-21T03:11:18.814Z,0
2018-12-21T03:11:50.778Z,0
2018-12-21T03:12:22.785Z,0
2018-12-21T03:12:54.784Z,0
2018-12-21T03:13:26.780Z,0
2018-12-21T03:13:58.753Z,0
2018-12-21T03:14:30.837Z,0
2018-12-21T03:15:02.815Z,0
2018-12-21T03:15:34.800Z,0
2018-12-21T03:16:06.773Z,0
2018-12-21T03:16:38.747Z,0
2018-12-21T03:17:10.719Z,0
2018-12-21T03:17:42.723Z,0
2018-12-21T03:18:14.766Z,0
2018-12-21T03:18:49.508Z,0
2018-12-21T03:19:21.480Z,0
2018-12-21T03:19:53.443Z,0
2018-12-21T03:20:25.423Z,0
2018-12-21T03:20:57.379Z,0
2018-12-21T03:21:29.338Z,0
2018-12-21T03:22:01.329Z,0
2018-12-21T03:22:33.314Z,0
2018-12-21T03:23:05.302Z,0
2018-12-21T03:23:37.286Z,0
2018-12-21T03:24:09.260Z,0
2018-12-21T03:24:41.237Z,0
2018-12-21T03:25:13.215Z,0
2018-12-21T03:25:45.198Z,0
2018-12-21T03:26:17.166Z,0
2018-12-21T03:26:49.158Z,0
2018-12-21T03:27:21.127Z,0
2018-12-21T03:27:53.122Z,0
2018-12-21T03:28:25.112Z,0
2018-12-21T03:28:57.080Z,0
2018-12-21T03:29:29.061Z,0
2018-12-21T03:30:01.041Z,0
2018-12-21T03:30:33.050Z,0
2018-12-21T03:31:05.082Z,0
2018-12-21T03:31:37.118Z,0
2018-12-21T03:32:09.141Z,0
2018-12-21T03:32:41.143Z,0
2018-12-21T03:33:13.146Z,0
2018-12-21T03:33:45.128Z,0
2018-12-21T03:34:17.132Z,0
2018-12-21T03:34:49.130Z,0
2018-12-21T03:35:21.484Z,0
2018-12-21T03:35:53.497Z,0
2018-12-21T03:36:25.519Z,0
2018-12-21T03:36:57.519Z,0
2018-12-21T03:37:29.492Z,0
2018-12-21T03:38:01.460Z,0
2018-12-21T03:38:33.433Z,0
2018-12-21T03:39:05.401Z,0
2018-12-21T03:39:37.374Z,0
2018-12-21T03:40:09.485Z,0
2018-12-21T03:40:41.441Z,0
2018-12-21T03:41:13.417Z,0
2018-12-21T03:41:45.401Z,0
2018-12-21T03:42:17.387Z,0
2018-12-21T03:42:49.370Z,0
2018-12-21T03:43:21.367Z,0
2018-12-21T03:43:53.347Z,0
2018-12-21T03:44:25.466Z,0
2018-12-21T03:44:57.431Z,0
2018-12-21T03:45:29.399Z,0
2018-12-21T03:46:01.379Z,0
2018-12-21T03:46:33.506Z,0
2018-12-21T03:47:05.486Z,0
2018-12-21T03:47:37.449Z,0
2018-12-21T03:48:09.423Z,0
2018-12-21T03:48:41.390Z,0
2018-12-21T03:49:13.366Z,0
2018-12-21T03:49:45.339Z,0
2018-12-21T03:50:17.320Z,0
2018-12-21T03:50:49.289Z,0
2018-12-21T03:51:21.270Z,0
2018-12-21T03:51:53.265Z,0
2018-12-21T03:52:25.969Z,0
2018-12-21T03:52:57.960Z,0
2018-12-21T03:53:30.038Z,0
2018-12-21T03:54:02.005Z,0
2018-12-21T03:54:33.984Z,0
2018-12-21T03:55:06.174Z,0
2018-12-21T03:55:38.167Z,0
2018-12-21T03:56:10.151Z,0
2018-12-21T03:56:42.147Z,0
2018-12-21T03:57:14.128Z,0
2018-12-21T03:57:46.113Z,0
2018-12-21T03:58:18.095Z,0
2018-12-21T03:58:50.108Z,0
2018-12-21T03:59:22.083Z,0
2018-12-21T03:59:54.061Z,0
2018-12-21T04:00:26.033Z,0
2018-12-21T04:00:58.007Z,0
2018-12-21T04:01:29.993Z,0
2018-12-21T04:02:01.970Z,0
2018-12-21T04:02:33.963Z,0
2018-12-21T04:03:05.938Z,0
2018-12-21T04:03:37.944Z,0
2018-12-21T04:04:09.936Z,0
2018-12-21T04:04:41.915Z,0
2018-12-21T04:05:13.884Z,0
2018-12-21T04:05:45.853Z,0
2018-12-21T04:06:17.834Z,0
2018-12-21T04:06:49.803Z,0
2018-12-21T04:07:21.777Z,0
2018-12-21T04:07:53.785Z,0
2018-12-21T04:08:25.771Z,0
2018-12-21T04:08:57.918Z,0
2018-12-21T04:09:29.898Z,0
2018-12-21T04:10:01.911Z,0
2018-12-21T04:10:33.902Z,0
2018-12-21T04:11:05.889Z,0
2018-12-21T04:11:37.856Z,0
2018-12-21T04:12:09.851Z,0
2018-12-21T04:12:41.842Z,0
2018-12-21T04:13:13.830Z,0
2018-12-21T04:13:45.807Z,0
2018-12-21T04:14:17.782Z,0
2018-12-21T04:14:49.762Z,0
2018-12-21T04:15:21.754Z,0
2018-12-21T04:15:53.730Z,0
2018-12-21T04:16:25.709Z,0
2018-12-21T04:16:57.700Z,0
2018-12-21T04:17:29.658Z,0
2018-12-21T04:18:01.643Z,0
2018-12-21T04:18:33.637Z,0
2018-12-21T04:19:05.628Z,0
2018-12-21T04:19:37.608Z,0
2018-12-21T04:20:09.658Z,0
2018-12-21T04:20:41.631Z,0
2018-12-21T04:21:13.609Z,0
2018-12-21T04:21:45.582Z,0
2018-12-21T04:22:17.545Z,0
2018-12-21T04:22:49.512Z,0
2018-12-21T04:23:21.501Z,0
2018-12-21T04:23:53.471Z,0
2018-12-21T04:24:25.466Z,0
2018-12-21T04:24:57.427Z,0
2018-12-21T04:25:29.422Z,0
2018-12-21T04:26:01.415Z,0
2018-12-21T04:26:33.399Z,0
2018-12-21T04:27:05.388Z,0
2018-12-21T04:27:37.354Z,0
2018-12-21T04:28:09.344Z,0
2018-12-21T04:28:41.325Z,0
2018-12-21T04:29:13.302Z,0
2018-12-21T04:29:45.269Z,0
2018-12-21T04:30:17.259Z,0
2018-12-21T04:30:49.251Z,0
2018-12-21T04:31:21.329Z,0
2018-12-21T04:31:53.312Z,0
2018-12-21T04:32:25.281Z,0
2018-12-21T04:32:57.254Z,0
2018-12-21T04:33:29.228Z,0
2018-12-21T04:34:01.244Z,0
2018-12-21T04:34:33.225Z,0
2018-12-21T04:35:05.201Z,0
2018-12-21T04:35:37.167Z,0
2018-12-21T04:36:09.194Z,0
2018-12-21T04:36:41.205Z,0
2018-12-21T04:37:13.219Z,0
2018-12-21T04:37:45.215Z,0
2018-12-21T04:38:17.205Z,0
2018-12-21T04:38:49.186Z,0
2018-12-21T04:39:21.175Z,0
2018-12-21T04:39:53.173Z,0
2018-12-21T04:40:25.169Z,0
2018-12-21T04:40:57.169Z,0
2018-12-21T04:41:29.222Z,0
2018-12-21T04:42:01.196Z,0
2018-12-21T04:42:33.172Z,0
2018-12-21T04:43:05.153Z,0
2018-12-21T04:43:37.127Z,0
2018-12-21T04:44:09.122Z,0
2018-12-21T04:44:41.095Z,0
2018-12-21T04:45:13.125Z,0
2018-12-21T04:45:45.129Z,0
2018-12-21T04:46:17.209Z,0
2018-12-21T04:46:49.182Z,0
2018-12-21T04:47:21.156Z,0
2018-12-21T04:47:53.134Z,0
2018-12-21T04:48:25.111Z,0
2018-12-21T04:48:57.078Z,0
2018-12-21T04:49:29.065Z,0
2018-12-21T04:50:01.051Z,0
2018-12-21T04:50:33.040Z,0
2018-12-21T04:51:05.016Z,0
2018-12-21T04:51:37.028Z,0
2018-12-21T04:52:09.006Z,0
2018-12-21T04:52:44.808Z,0
2018-12-21T04:53:16.788Z,0
2018-12-21T04:53:48.778Z,0
2018-12-21T04:54:20.759Z,0
2018-12-21T04:54:52.744Z,0
2018-12-21T04:55:24.703Z,0
2018-12-21T04:55:56.680Z,0
2018-12-21T04:56:28.661Z,0
2018-12-21T04:57:00.658Z,0
2018-12-21T04:57:32.635Z,0
2018-12-21T04:58:04.602Z,0
2018-12-21T04:58:36.578Z,0
2018-12-21T04:59:10.949Z,0
2018-12-21T04:59:42.897Z,0
2018-12-21T05:00:14.959Z,0
2018-12-21T05:00:46.956Z,0
2018-12-21T05:01:18.953Z,0
2018-12-21T05:01:50.929Z,0
2018-12-21T05:02:22.908Z,0
2018-12-21T05:02:54.886Z,0
2018-12-21T05:03:26.860Z,0
2018-12-21T05:03:58.935Z,0
2018-12-21T05:04:30.905Z,0
2018-12-21T05:05:02.871Z,0
2018-12-21T05:05:34.912Z,0
2018-12-21T05:06:06.896Z,0
2018-12-21T05:06:38.889Z,0
2018-12-21T05:07:13.892Z,0
2018-12-21T05:07:45.874Z,0
2018-12-21T05:08:17.852Z,0
2018-12-21T05:08:49.828Z,0
2018-12-21T05:09:21.795Z,0
2018-12-21T05:09:53.770Z,0
2018-12-21T05:10:25.733Z,0
2018-12-21T05:10:57.710Z,0
2018-12-21T05:11:29.714Z,0
2018-12-21T05:12:01.710Z,0
2018-12-21T05:12:33.681Z,0
2018-12-21T05:13:05.671Z,0
2018-12-21T05:13:37.652Z,0
2018-12-21T05:14:09.625Z,0
2018-12-21T05:14:41.609Z,0
2018-12-21T05:15:13.716Z,0
2018-12-21T05:15:45.726Z,0
2018-12-21T05:16:17.701Z,0
2018-12-21T05:16:49.679Z,0
2018-12-21T05:17:21.676Z,0
2018-12-21T05:17:53.689Z,0
2018-12-21T05:18:25.672Z,0
2018-12-21T05:18:57.648Z,0
2018-12-21T05:19:29.638Z,0
2018-12-21T05:20:01.631Z,0
2018-12-21T05:20:33.612Z,0
2018-12-21T05:21:05.594Z,0
2018-12-21T05:21:37.569Z,0
2018-12-21T05:22:09.636Z,0
2018-12-21T05:22:41.614Z,0
2018-12-21T05:23:13.601Z,0
2018-12-21T05:23:45.687Z,0
2018-12-21T05:24:17.663Z,0
2018-12-21T05:24:49.696Z,0
2018-12-21T05:25:21.678Z,0
2018-12-21T05:25:53.665Z,0
2018-12-21T05:26:25.632Z,0
2018-12-21T05:26:57.604Z,0
2018-12-21T05:27:29.641Z,0
2018-12-21T05:28:01.614Z,0
2018-12-21T05:28:33.602Z,0
2018-12-21T05:29:05.606Z,0
2018-12-21T05:29:40.058Z,0
2018-12-21T05:30:12.046Z,0
2018-12-21T05:30:44.022Z,0
2018-12-21T05:31:16.003Z,0
2018-12-21T05:31:47.974Z,0
2018-12-21T05:32:19.950Z,0
2018-12-21T05:32:51.924Z,0
2018-12-21T05:33:23.898Z,0
2018-12-21T05:33:55.890Z,0
2018-12-21T05:34:27.861Z,0
2018-12-21T05:34:59.815Z,0
2018-12-21T05:35:31.802Z,0
2018-12-21T05:36:03.783Z,0
2018-12-21T05:36:35.845Z,0
2018-12-21T05:37:07.839Z,0
2018-12-21T05:37:39.811Z,0
2018-12-21T05:38:11.779Z,0
2018-12-21T05:38:43.736Z,0
2018-12-21T05:39:15.805Z,0
2018-12-21T05:39:47.758Z,0
2018-12-21T05:40:19.737Z,0
2018-12-21T05:40:51.714Z,0
2018-12-21T05:41:23.696Z,0
2018-12-21T05:41:55.652Z,0
2018-12-21T05:42:27.622Z,0
2018-12-21T05:42:59.596Z,0
2018-12-21T05:43:31.576Z,0
2018-12-21T05:44:03.551Z,0
2018-12-21T05:44:35.530Z,0
2018-12-21T05:45:07.520Z,0
2018-12-21T05:45:39.603Z,0
2018-12-21T05:46:11.569Z,0
2018-12-21T05:46:43.552Z,0
2018-12-21T05:47:15.513Z,0
2018-12-21T05:47:47.491Z,0
2018-12-21T05:48:19.473Z,0
2018-12-21T05:48:51.441Z,0
2018-12-21T05:49:23.413Z,0
2018-12-21T05:49:55.379Z,0
2018-12-21T05:50:27.372Z,0
2018-12-21T05:50:59.337Z,0
2018-12-21T05:51:31.312Z,0
2018-12-21T05:52:03.286Z,0
2018-12-21T05:52:35.270Z,0
2018-12-21T05:53:07.249Z,0
2018-12-21T05:53:39.231Z,0
2018-12-21T05:54:11.193Z,0
2018-12-21T05:54:43.176Z,0
2018-12-21T05:55:15.141Z,0
2018-12-21T05:55:47.109Z,0
2018-12-21T05:56:19.077Z,0
2018-12-21T05:56:51.046Z,0
2018-12-21T05:57:23.011Z,0
2018-12-21T05:57:55.086Z,0
2018-12-21T05:58:27.054Z,0
2018-12-21T05:58:59.055Z,0
2018-12-21T05:59:31.033Z,0
2018-12-21T06:00:03.018Z,0
2018-12-21T06:00:35.012Z,0
2018-12-21T06:01:06.993Z,0
2018-12-21T06:01:38.951Z,0
2018-12-21T06:02:10.922Z,0
2018-12-21T06:02:42.886Z,0
2018-12-21T06:03:14.875Z,0
2018-12-21T06:03:46.842Z,0
2018-12-21T06:04:18.825Z,0
2018-12-21T06:04:50.802Z,0
2018-12-21T06:05:22.784Z,0
2018-12-21T06:05:54.748Z,0
2018-12-21T06:06:26.745Z,0
2018-12-21T06:06:58.723Z,0
2018-12-21T06:07:30.689Z,0
2018-12-21T06:08:02.674Z,0
2018-12-21T06:08:34.688Z,0
2018-12-21T06:09:06.673Z,0
2018-12-21T06:09:38.698Z,0
2018-12-21T06:10:10.673Z,0
2018-12-21T06:10:42.683Z,0
2018-12-21T06:11:14.814Z,0
2018-12-21T06:11:46.801Z,0
2018-12-21T06:12:18.785Z,0
2018-12-21T06:12:50.792Z,0
2018-12-21T06:13:22.789Z,0
2018-12-21T06:13:54.794Z,0
2018-12-21T06:14:26.880Z,0
2018-12-21T06:14:58.850Z,0
2018-12-21T06:15:30.826Z,0
2018-12-21T06:16:02.802Z,0
2018-12-21T06:16:34.779Z,0
2018-12-21T06:17:06.750Z,0
2018-12-21T06:17:38.831Z,0
2018-12-21T06:18:10.807Z,0
2018-12-21T06:18:42.757Z,0
2018-12-21T06:19:14.750Z,0
2018-12-21T06:19:46.734Z,0
2018-12-21T06:20:18.681Z,0
2018-12-21T06:20:50.653Z,0
2018-12-21T06:21:22.716Z,0
2018-12-21T06:21:54.702Z,0
2018-12-21T06:22:26.680Z,0
2018-12-21T06:22:58.661Z,0
2018-12-21T06:23:30.627Z,0
2018-12-21T06:24:02.615Z,0
2018-12-21T06:24:34.576Z,0
2018-12-21T06:25:06.551Z,0
2018-12-21T06:25:38.567Z,0
2018-12-21T06:26:10.533Z,0
2018-12-21T06:26:42.516Z,0
2018-12-21T06:27:14.486Z,0
2018-12-21T06:27:46.526Z,0
2018-12-21T06:28:18.507Z,0
2018-12-21T06:28:50.489Z,0
2018-12-21T06:29:22.467Z,0
2018-12-21T06:29:54.443Z,0
2018-12-21T06:30:26.416Z,0
2018-12-21T06:30:58.391Z,0
2018-12-21T06:31:30.364Z,0
2018-12-21T06:32:02.354Z,0
2018-12-21T06:32:34.348Z,0
2018-12-21T06:33:06.318Z,0
2018-12-21T06:33:38.287Z,0
2018-12-21T06:34:10.276Z,0
2018-12-21T06:34:42.281Z,0
2018-12-21T06:35:14.256Z,0
2018-12-21T06:35:46.253Z,0
2018-12-21T06:36:18.229Z,0
2018-12-21T06:36:50.206Z,0
2018-12-21T06:37:22.180Z,0
2018-12-21T06:37:54.142Z,0
2018-12-21T06:38:26.113Z,0
2018-12-21T06:38:58.105Z,0
2018-12-21T06:39:30.081Z,0
2018-12-21T06:40:02.047Z,0
2018-12-21T06:40:34.037Z,0
2018-12-21T06:41:06.030Z,0
2018-12-21T06:41:37.989Z,0
2018-12-21T06:42:09.962Z,0
2018-12-21T06:42:41.928Z,0
2018-12-21T06:43:14.000Z,0
2018-12-21T06:43:45.979Z,0
2018-12-21T06:44:17.958Z,0
2018-12-21T06:44:49.930Z,0
2018-12-21T06:45:21.895Z,0
2018-12-21T06:45:53.878Z,0
2018-12-21T06:46:25.851Z,0
2018-12-21T06:46:57.822Z,0
2018-12-21T06:47:29.798Z,0
2018-12-21T06:48:01.794Z,0
2018-12-21T06:48:33.792Z,0
2018-12-21T06:49:05.759Z,0
2018-12-21T06:49:37.712Z,0
2018-12-21T06:50:09.717Z,0
2018-12-21T06:50:41.694Z,0
2018-12-21T06:51:13.690Z,0
2018-12-21T06:51:45.666Z,0
2018-12-21T06:52:17.647Z,0
2018-12-21T06:52:49.630Z,0
2018-12-21T06:53:21.608Z,0
2018-12-21T06:53:53.584Z,0
2018-12-21T06:54:25.619Z,0
2018-12-21T06:54:57.596Z,0
2018-12-21T06:55:29.661Z,0
2018-12-21T06:56:01.632Z,0
2018-12-21T06:56:33.622Z,0
2018-12-21T06:57:05.601Z,0
2018-12-21T06:57:37.586Z,0
2018-12-21T06:58:09.557Z,0
2018-12-21T06:58:41.549Z,0
2018-12-21T06:59:13.527Z,0
2018-12-21T06:59:45.500Z,0
2018-12-21T07:00:17.484Z,0
2018-12-21T07:00:49.442Z,0
2018-12-21T07:01:21.418Z,0
2018-12-21T07:01:53.431Z,0
2018-12-21T07:02:25.416Z,0
2018-12-21T07:02:57.383Z,0
2018-12-21T07:03:29.367Z,0
2018-12-21T07:04:01.342Z,0
2018-12-21T07:04:33.441Z,0
2018-12-21T07:05:05.423Z,0
2018-12-21T07:05:37.386Z,0
2018-12-21T07:06:09.352Z,0
2018-12-21T07:06:41.329Z,0
2018-12-21T07:07:13.304Z,0
2018-12-21T07:07:45.270Z,0
2018-12-21T07:08:17.244Z,0
2018-12-21T07:08:49.216Z,0
2018-12-21T07:09:21.201Z,0
2018-12-21T07:09:53.193Z,0
2018-12-21T07:10:25.173Z,0
2018-12-21T07:10:57.136Z,0
2018-12-21T07:11:29.126Z,0
2018-12-21T07:12:01.117Z,0
2018-12-21T07:12:33.098Z,0
2018-12-21T07:13:05.153Z,0
2018-12-21T07:13:37.221Z,0
2018-12-21T07:14:09.185Z,0
2018-12-21T07:14:41.264Z,0
2018-12-21T07:15:13.246Z,0
2018-12-21T07:15:45.228Z,0
2018-12-21T07:16:17.226Z,4
2018-12-21T07:16:49.331Z,4
2018-12-21T07:17:21.343Z,8
2018-12-21T07:17:53.409Z,8
2018-12-21T07:18:25.364Z,8
2018-12-21T07:18:57.353Z,8
2018-12-21T07:19:29.340Z,12
2018-12-21T07:20:01.393Z,12
2018-12-21T07:20:33.407Z,8
2018-12-21T07:21:05.385Z,8
2018-12-21T07:21:37.346Z,8
2018-12-21T07:22:09.295Z,12
2018-12-21T07:22:41.291Z,12
2018-12-21T07:23:13.277Z,12
2018-12-21T07:23:45.269Z,12
2018-12-21T07:24:17.335Z,16
2018-12-21T07:24:49.278Z,16
2018-12-21T07:25:21.256Z,12
2018-12-21T07:25:53.242Z,12
2018-12-21T07:26:25.219Z,16
2018-12-21T07:26:57.204Z,16
2018-12-21T07:27:29.177Z,16
2018-12-21T07:28:01.174Z,16
2018-12-21T07:28:33.307Z,16
2018-12-21T07:29:05.287Z,20
2018-12-21T07:29:37.268Z,20
2018-12-21T07:30:09.275Z,20
2018-12-21T07:30:41.269Z,20
2018-12-21T07:31:13.394Z,24
2018-12-21T07:31:45.387Z,24
2018-12-21T07:32:17.362Z,24
2018-12-21T07:32:49.328Z,24
2018-12-21T07:33:21.432Z,24
2018-12-21T07:33:53.407Z,24
2018-12-21T07:34:27.273Z,24
2018-12-21T07:34:59.292Z,24
2018-12-21T07:35:31.267Z,24
2018-12-21T07:36:09.819Z,24
2018-12-21T07:36:41.787Z,24
2018-12-21T07:37:13.772Z,28
2018-12-21T07:37:45.763Z,28
2018-12-21T07:38:17.760Z,28
2018-12-21T07:38:49.738Z,28
2018-12-21T07:39:21.716Z,28
2018-12-21T07:39:53.701Z,28
2018-12-21T07:40:25.682Z,32
2018-12-21T07:40:57.663Z,32
2018-12-21T07:41:29.640Z,32
2018-12-21T07:42:01.626Z,36
2018-12-21T07:42:33.620Z,32
2018-12-21T07:43:05.632Z,32
2018-12-21T07:43:37.603Z,36
2018-12-21T07:44:09.585Z,32
2018-12-21T07:44:41.569Z,36
2018-12-21T07:45:13.544Z,36
2018-12-21T07:45:45.609Z,36
2018-12-21T07:46:17.596Z,40
2018-12-21T07:46:49.606Z,40
2018-12-21T07:47:21.710Z,32
2018-12-21T07:47:53.681Z,36
2018-12-21T07:48:25.664Z,32
2018-12-21T07:48:57.764Z,36
2018-12-21T07:49:29.738Z,36
2018-12-21T07:50:01.714Z,36
2018-12-21T07:50:33.680Z,36
2018-12-21T07:51:05.659Z,40
2018-12-21T07:51:37.797Z,36
2018-12-21T07:52:09.775Z,40
2018-12-21T07:52:41.760Z,40